sensor_id;sensor_type;location;lat;lon;timestamp;P1;durP1;ratioP1;P2;durP2;ratioP2
9986;SDS011;5033;46.310;11.214;2022-07-12T00:00:11;2.53;;;1.52;;
9986;SDS011;5033;46.310;11.214;2022-07-12T00:02:39;1.50;;;1.40;;
9986;SDS011;5033;46.310;11.214;2022-07-12T00:05:06;1.60;;;1.50;;
9986;SDS011;5033;46.310;11.214;2022-07-12T00:07:34;3.13;;;1.50;;
9986;SDS011;5033;46.310;11.214;2022-07-12T00:10:01;1.75;;;1.65;;
9986;SDS011;5033;46.310;11.214;2022-07-12T00:12:28;1.80;;;1.70;;
9986;SDS011;5033;46.310;11.214;2022-07-12T00:14:55;2.20;;;2.00;;
9986;SDS011;5033;46.310;11.214;2022-07-12T00:17:24;1.70;;;1.60;;
9986;SDS011;5033;46.310;11.214;2022-07-12T00:19:51;1.77;;;1.67;;
9986;SDS011;5033;46.310;11.214;2022-07-12T00:22:18;1.70;;;1.52;;
9986;SDS011;5033;46.310;11.214;2022-07-12T00:24:45;1.40;;;1.30;;
9986;SDS011;5033;46.310;11.214;2022-07-12T00:27:12;2.33;;;1.90;;
9986;SDS011;5033;46.310;11.214;2022-07-12T00:29:39;1.65;;;1.55;;
9986;SDS011;5033;46.310;11.214;2022-07-12T00:32:06;1.77;;;1.67;;
9986;SDS011;5033;46.310;11.214;2022-07-12T00:34:35;1.58;;;1.48;;
9986;SDS011;5033;46.310;11.214;2022-07-12T00:37:02;1.92;;;1.83;;
9986;SDS011;5033;46.310;11.214;2022-07-12T00:39:30;1.55;;;1.23;;
9986;SDS011;5033;46.310;11.214;2022-07-12T00:41:57;1.40;;;1.30;;
9986;SDS011;5033;46.310;11.214;2022-07-12T00:44:24;1.48;;;1.35;;
9986;SDS011;5033;46.310;11.214;2022-07-12T00:46:51;1.70;;;1.60;;
9986;SDS011;5033;46.310;11.214;2022-07-12T00:49:22;1.55;;;1.45;;
9986;SDS011;5033;46.310;11.214;2022-07-12T00:51:52;1.50;;;1.40;;
9986;SDS011;5033;46.310;11.214;2022-07-12T00:54:19;1.60;;;1.50;;
9986;SDS011;5033;46.310;11.214;2022-07-12T00:56:46;3.10;;;1.65;;
9986;SDS011;5033;46.310;11.214;2022-07-12T00:59:13;1.73;;;1.48;;
9986;SDS011;5033;46.310;11.214;2022-07-12T01:01:41;2.13;;;1.98;;
9986;SDS011;5033;46.310;11.214;2022-07-12T01:04:08;2.13;;;1.50;;
9986;SDS011;5033;46.310;11.214;2022-07-12T01:06:35;1.88;;;1.77;;
9986;SDS011;5033;46.310;11.214;2022-07-12T01:09:04;1.63;;;1.52;;
9986;SDS011;5033;46.310;11.214;2022-07-12T01:11:32;1.83;;;1.65;;
9986;SDS011;5033;46.310;11.214;2022-07-12T01:14:01;1.85;;;1.65;;
9986;SDS011;5033;46.310;11.214;2022-07-12T01:16:29;1.50;;;1.40;;
9986;SDS011;5033;46.310;11.214;2022-07-12T01:18:58;1.88;;;1.77;;
9986;SDS011;5033;46.310;11.214;2022-07-12T01:21:25;1.52;;;1.42;;
9986;SDS011;5033;46.310;11.214;2022-07-12T01:23:58;2.22;;;1.60;;
9986;SDS011;5033;46.310;11.214;2022-07-12T01:26:27;1.60;;;1.50;;
9986;SDS011;5033;46.310;11.214;2022-07-12T01:28:54;1.95;;;1.70;;
9986;SDS011;5033;46.310;11.214;2022-07-12T01:31:22;1.92;;;1.70;;
9986;SDS011;5033;46.310;11.214;2022-07-12T01:33:49;1.70;;;1.60;;
9986;SDS011;5033;46.310;11.214;2022-07-12T01:36:16;1.60;;;1.50;;
9986;SDS011;5033;46.310;11.214;2022-07-12T01:38:43;1.48;;;1.38;;
9986;SDS011;5033;46.310;11.214;2022-07-12T01:41:12;2.25;;;1.92;;
9986;SDS011;5033;46.310;11.214;2022-07-12T01:43:39;2.00;;;1.88;;
9986;SDS011;5033;46.310;11.214;2022-07-12T01:46:07;1.35;;;1.30;;
9986;SDS011;5033;46.310;11.214;2022-07-12T01:48:34;1.50;;;1.40;;
9986;SDS011;5033;46.310;11.214;2022-07-12T01:51:01;1.55;;;1.40;;
9986;SDS011;5033;46.310;11.214;2022-07-12T01:53:28;1.45;;;1.35;;
9986;SDS011;5033;46.310;11.214;2022-07-12T01:55:55;1.50;;;1.40;;
9986;SDS011;5033;46.310;11.214;2022-07-12T01:58:33;1.50;;;1.40;;
9986;SDS011;5033;46.310;11.214;2022-07-12T02:01:00;1.23;;;1.13;;
9986;SDS011;5033;46.310;11.214;2022-07-12T02:03:28;1.40;;;1.27;;
9986;SDS011;5033;46.310;11.214;2022-07-12T02:05:55;1.50;;;1.40;;
9986;SDS011;5033;46.310;11.214;2022-07-12T02:08:22;1.60;;;1.40;;
9986;SDS011;5033;46.310;11.214;2022-07-12T02:10:49;1.55;;;1.45;;
9986;SDS011;5033;46.310;11.214;2022-07-12T02:13:16;1.55;;;1.45;;
9986;SDS011;5033;46.310;11.214;2022-07-12T02:15:45;1.73;;;1.42;;
9986;SDS011;5033;46.310;11.214;2022-07-12T02:18:12;1.35;;;1.25;;
9986;SDS011;5033;46.310;11.214;2022-07-12T02:20:39;1.70;;;1.50;;
9986;SDS011;5033;46.310;11.214;2022-07-12T02:23:06;1.48;;;1.38;;
9986;SDS011;5033;46.310;11.214;2022-07-12T02:25:33;1.50;;;1.40;;
9986;SDS011;5033;46.310;11.214;2022-07-12T02:28:00;2.05;;;1.50;;
9986;SDS011;5033;46.310;11.214;2022-07-12T02:30:27;1.42;;;1.33;;
9986;SDS011;5033;46.310;11.214;2022-07-12T02:32:56;1.85;;;1.50;;
9986;SDS011;5033;46.310;11.214;2022-07-12T02:35:23;1.70;;;1.60;;
9986;SDS011;5033;46.310;11.214;2022-07-12T02:37:50;1.38;;;1.27;;
9986;SDS011;5033;46.310;11.214;2022-07-12T02:40:17;1.63;;;1.50;;
9986;SDS011;5033;46.310;11.214;2022-07-12T02:43:02;1.52;;;1.40;;
9986;SDS011;5033;46.310;11.214;2022-07-12T02:45:30;1.88;;;1.70;;
9986;SDS011;5033;46.310;11.214;2022-07-12T02:47:58;1.77;;;1.45;;
9986;SDS011;5033;46.310;11.214;2022-07-12T02:50:25;1.90;;;1.80;;
9986;SDS011;5033;46.310;11.214;2022-07-12T02:52:53;2.10;;;1.90;;
9986;SDS011;5033;46.310;11.214;2022-07-12T02:55:20;1.77;;;1.60;;
9986;SDS011;5033;46.310;11.214;2022-07-12T02:57:47;3.05;;;1.80;;
9986;SDS011;5033;46.310;11.214;2022-07-12T03:00:14;1.95;;;1.70;;
9986;SDS011;5033;46.310;11.214;2022-07-12T03:02:41;2.05;;;1.50;;
9986;SDS011;5033;46.310;11.214;2022-07-12T03:05:10;2.75;;;1.80;;
9986;SDS011;5033;46.310;11.214;2022-07-12T03:07:37;1.77;;;1.67;;
9986;SDS011;5033;46.310;11.214;2022-07-12T03:10:04;1.65;;;1.55;;
9986;SDS011;5033;46.310;11.214;2022-07-12T03:12:32;1.80;;;1.70;;
9986;SDS011;5033;46.310;11.214;2022-07-12T03:14:59;2.47;;;1.70;;
9986;SDS011;5033;46.310;11.214;2022-07-12T03:17:27;1.83;;;1.70;;
9986;SDS011;5033;46.310;11.214;2022-07-12T03:19:54;1.52;;;1.42;;
9986;SDS011;5033;46.310;11.214;2022-07-12T03:22:22;2.50;;;1.67;;
9986;SDS011;5033;46.310;11.214;2022-07-12T03:24:50;2.53;;;2.20;;
9986;SDS011;5033;46.310;11.214;2022-07-12T03:27:17;2.45;;;2.10;;
9986;SDS011;5033;46.310;11.214;2022-07-12T03:29:44;2.00;;;1.88;;
9986;SDS011;5033;46.310;11.214;2022-07-12T03:32:11;2.08;;;1.90;;
9986;SDS011;5033;46.310;11.214;2022-07-12T03:34:38;2.40;;;1.67;;
9986;SDS011;5033;46.310;11.214;2022-07-12T03:37:05;1.80;;;1.70;;
9986;SDS011;5033;46.310;11.214;2022-07-12T03:39:34;1.70;;;1.60;;
9986;SDS011;5033;46.310;11.214;2022-07-12T03:42:01;1.75;;;1.40;;
9986;SDS011;5033;46.310;11.214;2022-07-12T03:44:29;1.38;;;1.27;;
9986;SDS011;5033;46.310;11.214;2022-07-12T03:46:56;1.48;;;1.38;;
9986;SDS011;5033;46.310;11.214;2022-07-12T03:49:23;1.52;;;1.40;;
9986;SDS011;5033;46.310;11.214;2022-07-12T03:51:50;1.58;;;1.48;;
9986;SDS011;5033;46.310;11.214;2022-07-12T03:54:17;1.50;;;1.40;;
9986;SDS011;5033;46.310;11.214;2022-07-12T03:56:46;1.60;;;1.50;;
9986;SDS011;5033;46.310;11.214;2022-07-12T03:59:31;1.85;;;1.73;;
9986;SDS011;5033;46.310;11.214;2022-07-12T04:01:58;1.80;;;1.70;;
9986;SDS011;5033;46.310;11.214;2022-07-12T04:04:26;1.60;;;1.50;;
9986;SDS011;5033;46.310;11.214;2022-07-12T04:06:54;1.70;;;1.45;;
9986;SDS011;5033;46.310;11.214;2022-07-12T04:09:21;1.85;;;1.63;;
9986;SDS011;5033;46.310;11.214;2022-07-12T04:11:49;1.70;;;1.60;;
9986;SDS011;5033;46.310;11.214;2022-07-12T04:14:16;1.50;;;1.40;;
9986;SDS011;5033;46.310;11.214;2022-07-12T04:16:43;1.85;;;1.40;;
9986;SDS011;5033;46.310;11.214;2022-07-12T04:19:10;1.77;;;1.67;;
9986;SDS011;5033;46.310;11.214;2022-07-12T04:21:37;1.55;;;1.40;;
9986;SDS011;5033;46.310;11.214;2022-07-12T04:24:05;1.80;;;1.70;;
9986;SDS011;5033;46.310;11.214;2022-07-12T04:26:32;1.83;;;1.73;;
9986;SDS011;5033;46.310;11.214;2022-07-12T04:29:01;2.70;;;1.90;;
9986;SDS011;5033;46.310;11.214;2022-07-12T04:31:28;2.55;;;2.10;;
9986;SDS011;5033;46.310;11.214;2022-07-12T04:33:55;1.85;;;1.75;;
9986;SDS011;5033;46.310;11.214;2022-07-12T04:36:22;1.98;;;1.70;;
9986;SDS011;5033;46.310;11.214;2022-07-12T04:38:49;2.60;;;1.90;;
9986;SDS011;5033;46.310;11.214;2022-07-12T04:41:16;1.50;;;1.40;;
9986;SDS011;5033;46.310;11.214;2022-07-12T04:43:43;1.90;;;1.80;;
9986;SDS011;5033;46.310;11.214;2022-07-12T04:46:11;1.92;;;1.80;;
9986;SDS011;5033;46.310;11.214;2022-07-12T04:48:39;1.75;;;1.65;;
9986;SDS011;5033;46.310;11.214;2022-07-12T04:51:06;1.52;;;1.42;;
9986;SDS011;5033;46.310;11.214;2022-07-12T04:53:33;1.73;;;1.50;;
9986;SDS011;5033;46.310;11.214;2022-07-12T04:56:00;1.83;;;1.73;;
9986;SDS011;5033;46.310;11.214;2022-07-12T04:58:27;1.80;;;1.70;;
9986;SDS011;5033;46.310;11.214;2022-07-12T05:00:54;1.95;;;1.77;;
9986;SDS011;5033;46.310;11.214;2022-07-12T05:03:22;2.00;;;1.75;;
9986;SDS011;5033;46.310;11.214;2022-07-12T05:05:52;1.70;;;1.60;;
9986;SDS011;5033;46.310;11.214;2022-07-12T05:08:20;2.55;;;1.60;;
9986;SDS011;5033;46.310;11.214;2022-07-12T05:10:47;1.40;;;1.30;;
9986;SDS011;5033;46.310;11.214;2022-07-12T05:13:14;1.73;;;1.33;;
9986;SDS011;5033;46.310;11.214;2022-07-12T05:15:41;1.50;;;1.40;;
9986;SDS011;5033;46.310;11.214;2022-07-12T05:18:08;1.38;;;1.27;;
9986;SDS011;5033;46.310;11.214;2022-07-12T05:20:37;3.08;;;1.23;;
9986;SDS011;5033;46.310;11.214;2022-07-12T05:23:04;1.60;;;1.50;;
9986;SDS011;5033;46.310;11.214;2022-07-12T05:25:31;1.42;;;1.35;;
9986;SDS011;5033;46.310;11.214;2022-07-12T05:27:58;1.50;;;1.20;;
9986;SDS011;5033;46.310;11.214;2022-07-12T05:30:25;1.33;;;1.23;;
9986;SDS011;5033;46.310;11.214;2022-07-12T05:32:52;1.52;;;1.42;;
9986;SDS011;5033;46.310;11.214;2022-07-12T05:35:19;1.80;;;1.63;;
9986;SDS011;5033;46.310;11.214;2022-07-12T05:37:48;3.92;;;1.83;;
9986;SDS011;5033;46.310;11.214;2022-07-12T05:40:15;1.95;;;1.60;;
9986;SDS011;5033;46.310;11.214;2022-07-12T05:42:44;1.85;;;1.73;;
9986;SDS011;5033;46.310;11.214;2022-07-12T05:45:11;1.95;;;1.70;;
9986;SDS011;5033;46.310;11.214;2022-07-12T05:47:38;1.77;;;1.40;;
9986;SDS011;5033;46.310;11.214;2022-07-12T05:50:06;2.42;;;1.67;;
9986;SDS011;5033;46.310;11.214;2022-07-12T05:52:33;1.58;;;1.40;;
9986;SDS011;5033;46.310;11.214;2022-07-12T05:55:19;1.50;;;1.40;;
9986;SDS011;5033;46.310;11.214;2022-07-12T05:57:46;1.35;;;1.25;;
9986;SDS011;5033;46.310;11.214;2022-07-12T06:00:14;1.63;;;1.52;;
9986;SDS011;5033;46.310;11.214;2022-07-12T06:02:41;1.95;;;1.70;;
9986;SDS011;5033;46.310;11.214;2022-07-12T06:05:08;1.80;;;1.40;;
9986;SDS011;5033;46.310;11.214;2022-07-12T06:07:35;1.90;;;1.20;;
9986;SDS011;5033;46.310;11.214;2022-07-12T06:10:03;2.03;;;1.23;;
9986;SDS011;5033;46.310;11.214;2022-07-12T06:12:32;1.63;;;1.20;;
9986;SDS011;5033;46.310;11.214;2022-07-12T06:14:59;1.50;;;1.15;;
9986;SDS011;5033;46.310;11.214;2022-07-12T06:17:27;2.28;;;1.40;;
9986;SDS011;5033;46.310;11.214;2022-07-12T06:19:54;1.80;;;1.42;;
9986;SDS011;5033;46.310;11.214;2022-07-12T06:22:21;2.28;;;1.40;;
9986;SDS011;5033;46.310;11.214;2022-07-12T06:24:48;1.90;;;1.30;;
9986;SDS011;5033;46.310;11.214;2022-07-12T06:27:15;1.58;;;1.25;;
9986;SDS011;5033;46.310;11.214;2022-07-12T06:29:44;2.50;;;1.33;;
9986;SDS011;5033;46.310;11.214;2022-07-12T06:32:14;3.25;;;1.35;;
9986;SDS011;5033;46.310;11.214;2022-07-12T06:34:41;1.40;;;1.30;;
9986;SDS011;5033;46.310;11.214;2022-07-12T06:37:08;1.50;;;1.40;;
9986;SDS011;5033;46.310;11.214;2022-07-12T06:39:38;4.07;;;1.15;;
9986;SDS011;5033;46.310;11.214;2022-07-12T06:42:05;1.67;;;1.50;;
9986;SDS011;5033;46.310;11.214;2022-07-12T06:44:32;1.40;;;1.27;;
9986;SDS011;5033;46.310;11.214;2022-07-12T06:47:01;1.30;;;1.20;;
9986;SDS011;5033;46.310;11.214;2022-07-12T06:49:29;2.65;;;1.40;;
9986;SDS011;5033;46.310;11.214;2022-07-12T06:51:56;1.10;;;1.10;;
9986;SDS011;5033;46.310;11.214;2022-07-12T06:54:23;1.30;;;1.20;;
9986;SDS011;5033;46.310;11.214;2022-07-12T06:56:51;2.53;;;1.20;;
9986;SDS011;5033;46.310;11.214;2022-07-12T06:59:18;1.20;;;1.00;;
9986;SDS011;5033;46.310;11.214;2022-07-12T07:01:45;1.27;;;1.05;;
9986;SDS011;5033;46.310;11.214;2022-07-12T07:04:13;1.50;;;1.23;;
9986;SDS011;5033;46.310;11.214;2022-07-12T07:06:40;1.48;;;1.38;;
9986;SDS011;5033;46.310;11.214;2022-07-12T07:09:07;2.25;;;1.00;;
9986;SDS011;5033;46.310;11.214;2022-07-12T07:11:35;1.20;;;1.10;;
9986;SDS011;5033;46.310;11.214;2022-07-12T07:14:02;1.20;;;1.10;;
9986;SDS011;5033;46.310;11.214;2022-07-12T07:16:29;1.58;;;1.20;;
9986;SDS011;5033;46.310;11.214;2022-07-12T07:18:56;1.90;;;1.13;;
9986;SDS011;5033;46.310;11.214;2022-07-12T07:21:25;2.40;;;1.55;;
9986;SDS011;5033;46.310;11.214;2022-07-12T07:23:52;2.00;;;1.20;;
9986;SDS011;5033;46.310;11.214;2022-07-12T07:26:20;1.52;;;1.30;;
9986;SDS011;5033;46.310;11.214;2022-07-12T07:28:47;2.30;;;1.65;;
9986;SDS011;5033;46.310;11.214;2022-07-12T07:31:33;1.60;;;1.50;;
9986;SDS011;5033;46.310;11.214;2022-07-12T07:34:01;2.45;;;1.42;;
9986;SDS011;5033;46.310;11.214;2022-07-12T07:36:29;1.60;;;1.50;;
9986;SDS011;5033;46.310;11.214;2022-07-12T07:38:56;3.08;;;1.48;;
9986;SDS011;5033;46.310;11.214;2022-07-12T07:41:25;1.70;;;1.42;;
9986;SDS011;5033;46.310;11.214;2022-07-12T07:43:52;1.77;;;1.50;;
9986;SDS011;5033;46.310;11.214;2022-07-12T07:46:19;2.58;;;1.52;;
9986;SDS011;5033;46.310;11.214;2022-07-12T07:48:46;1.52;;;1.42;;
9986;SDS011;5033;46.310;11.214;2022-07-12T07:51:13;1.77;;;1.58;;
9986;SDS011;5033;46.310;11.214;2022-07-12T07:53:42;1.73;;;1.40;;
9986;SDS011;5033;46.310;11.214;2022-07-12T07:56:09;2.78;;;1.90;;
9986;SDS011;5033;46.310;11.214;2022-07-12T07:58:36;2.25;;;1.80;;
9986;SDS011;5033;46.310;11.214;2022-07-12T08:01:03;2.17;;;1.65;;
9986;SDS011;5033;46.310;11.214;2022-07-12T08:03:30;2.17;;;1.77;;
9986;SDS011;5033;46.310;11.214;2022-07-12T08:05:57;2.22;;;2.03;;
9986;SDS011;5033;46.310;11.214;2022-07-12T08:08:25;2.97;;;1.98;;
9986;SDS011;5033;46.310;11.214;2022-07-12T08:10:55;2.80;;;1.60;;
9986;SDS011;5033;46.310;11.214;2022-07-12T08:13:22;2.83;;;1.80;;
9986;SDS011;5033;46.310;11.214;2022-07-12T08:15:49;2.08;;;1.50;;
9986;SDS011;5033;46.310;11.214;2022-07-12T08:18:16;4.82;;;1.88;;
9986;SDS011;5033;46.310;11.214;2022-07-12T08:20:43;1.48;;;1.38;;
9986;SDS011;5033;46.310;11.214;2022-07-12T08:23:11;2.50;;;1.60;;
9986;SDS011;5033;46.310;11.214;2022-07-12T08:25:39;1.88;;;1.60;;
9986;SDS011;5033;46.310;11.214;2022-07-12T08:28:07;3.28;;;2.00;;
9986;SDS011;5033;46.310;11.214;2022-07-12T08:30:35;2.25;;;1.88;;
9986;SDS011;5033;46.310;11.214;2022-07-12T08:33:02;1.73;;;1.63;;
9986;SDS011;5033;46.310;11.214;2022-07-12T08:35:29;2.67;;;1.60;;
9986;SDS011;5033;46.310;11.214;2022-07-12T08:37:56;3.22;;;2.13;;
9986;SDS011;5033;46.310;11.214;2022-07-12T08:40:23;2.42;;;1.58;;
9986;SDS011;5033;46.310;11.214;2022-07-12T08:42:50;2.67;;;2.00;;
9986;SDS011;5033;46.310;11.214;2022-07-12T08:45:19;2.38;;;2.20;;
9986;SDS011;5033;46.310;11.214;2022-07-12T08:47:46;2.10;;;1.90;;
9986;SDS011;5033;46.310;11.214;2022-07-12T08:50:13;2.13;;;1.90;;
9986;SDS011;5033;46.310;11.214;2022-07-12T08:52:45;2.58;;;1.92;;
9986;SDS011;5033;46.310;11.214;2022-07-12T08:55:17;2.00;;;1.90;;
9986;SDS011;5033;46.310;11.214;2022-07-12T08:57:46;2.53;;;2.13;;
9986;SDS011;5033;46.310;11.214;2022-07-12T09:00:14;2.53;;;2.30;;
9986;SDS011;5033;46.310;11.214;2022-07-12T09:02:47;2.42;;;1.80;;
9986;SDS011;5033;46.310;11.214;2022-07-12T09:05:15;2.25;;;1.98;;
9986;SDS011;5033;46.310;11.214;2022-07-12T09:07:43;3.65;;;2.45;;
9986;SDS011;5033;46.310;11.214;2022-07-12T09:10:11;3.03;;;2.25;;
9986;SDS011;5033;46.310;11.214;2022-07-12T09:12:39;2.20;;;2.00;;
9986;SDS011;5033;46.310;11.214;2022-07-12T09:15:13;2.83;;;2.13;;
9986;SDS011;5033;46.310;11.214;2022-07-12T09:17:58;2.03;;;1.92;;
9986;SDS011;5033;46.310;11.214;2022-07-12T09:20:27;2.25;;;2.00;;
9986;SDS011;5033;46.310;11.214;2022-07-12T09:22:55;2.75;;;1.67;;
9986;SDS011;5033;46.310;11.214;2022-07-12T09:25:24;2.53;;;2.33;;
9986;SDS011;5033;46.310;11.214;2022-07-12T09:27:52;2.22;;;1.92;;
9986;SDS011;5033;46.310;11.214;2022-07-12T09:30:21;2.35;;;1.95;;
9986;SDS011;5033;46.310;11.214;2022-07-12T09:32:49;2.88;;;1.83;;
9986;SDS011;5033;46.310;11.214;2022-07-12T09:35:36;2.30;;;2.08;;
9986;SDS011;5033;46.310;11.214;2022-07-12T09:38:20;2.40;;;2.20;;
9986;SDS011;5033;46.310;11.214;2022-07-12T09:40:48;2.00;;;1.90;;
9986;SDS011;5033;46.310;11.214;2022-07-12T09:43:16;3.05;;;2.40;;
9986;SDS011;5033;46.310;11.214;2022-07-12T09:45:44;7.78;;;2.53;;
9986;SDS011;5033;46.310;11.214;2022-07-12T09:48:14;3.47;;;2.40;;
9986;SDS011;5033;46.310;11.214;2022-07-12T09:50:46;7.15;;;2.67;;
9986;SDS011;5033;46.310;11.214;2022-07-12T09:53:14;3.50;;;2.50;;
9986;SDS011;5033;46.310;11.214;2022-07-12T09:55:49;3.85;;;2.45;;
9986;SDS011;5033;46.310;11.214;2022-07-12T09:58:20;4.75;;;2.45;;
9986;SDS011;5033;46.310;11.214;2022-07-12T10:00:50;2.33;;;2.13;;
9986;SDS011;5033;46.310;11.214;2022-07-12T10:03:20;2.53;;;2.33;;
9986;SDS011;5033;46.310;11.214;2022-07-12T10:05:51;4.38;;;2.33;;
9986;SDS011;5033;46.310;11.214;2022-07-12T10:08:19;2.53;;;2.30;;
9986;SDS011;5033;46.310;11.214;2022-07-12T10:10:47;2.60;;;2.25;;
9986;SDS011;5033;46.310;11.214;2022-07-12T10:13:16;2.65;;;2.08;;
9986;SDS011;5033;46.310;11.214;2022-07-12T10:15:45;5.15;;;2.50;;
9986;SDS011;5033;46.310;11.214;2022-07-12T10:18:18;4.00;;;2.40;;
9986;SDS011;5033;46.310;11.214;2022-07-12T10:20:46;3.80;;;2.70;;
9986;SDS011;5033;46.310;11.214;2022-07-12T10:23:31;5.50;;;2.60;;
9986;SDS011;5033;46.310;11.214;2022-07-12T10:28:59;3.42;;;2.28;;
9986;SDS011;5033;46.310;11.214;2022-07-12T10:31:28;3.38;;;2.50;;
9986;SDS011;5033;46.310;11.214;2022-07-12T10:33:59;3.13;;;2.38;;
9986;SDS011;5033;46.310;11.214;2022-07-12T10:37:08;3.85;;;2.15;;
9986;SDS011;5033;46.310;11.214;2022-07-12T10:39:38;2.88;;;2.25;;
9986;SDS011;5033;46.310;11.214;2022-07-12T10:42:15;2.53;;;2.28;;
9986;SDS011;5033;46.310;11.214;2022-07-12T10:44:44;4.13;;;2.20;;
9986;SDS011;5033;46.310;11.214;2022-07-12T10:47:13;6.20;;;2.42;;
9986;SDS011;5033;46.310;11.214;2022-07-12T10:49:45;3.88;;;2.30;;
9986;SDS011;5033;46.310;11.214;2022-07-12T10:52:24;2.60;;;2.10;;
9986;SDS011;5033;46.310;11.214;2022-07-12T10:57:46;4.60;;;2.65;;
9986;SDS011;5033;46.310;11.214;2022-07-12T11:00:19;2.20;;;2.00;;
9986;SDS011;5033;46.310;11.214;2022-07-12T11:02:48;2.03;;;1.83;;
9986;SDS011;5033;46.310;11.214;2022-07-12T11:05:15;2.75;;;2.00;;
9986;SDS011;5033;46.310;11.214;2022-07-12T11:07:42;2.88;;;2.10;;
9986;SDS011;5033;46.310;11.214;2022-07-12T11:10:11;2.58;;;2.20;;
9986;SDS011;5033;46.310;11.214;2022-07-12T11:12:41;1.77;;;1.63;;
9986;SDS011;5033;46.310;11.214;2022-07-12T11:15:10;2.25;;;2.00;;
9986;SDS011;5033;46.310;11.214;2022-07-12T11:17:38;4.95;;;2.10;;
9986;SDS011;5033;46.310;11.214;2022-07-12T11:20:06;2.10;;;1.85;;
9986;SDS011;5033;46.310;11.214;2022-07-12T11:22:36;3.20;;;2.20;;
9986;SDS011;5033;46.310;11.214;2022-07-12T11:25:05;2.05;;;1.80;;
9986;SDS011;5033;46.310;11.214;2022-07-12T11:27:34;2.28;;;1.98;;
9986;SDS011;5033;46.310;11.214;2022-07-12T11:30:04;2.47;;;2.10;;
9986;SDS011;5033;46.310;11.214;2022-07-12T11:32:33;2.22;;;2.00;;
9986;SDS011;5033;46.310;11.214;2022-07-12T11:35:16;2.20;;;1.98;;
9986;SDS011;5033;46.310;11.214;2022-07-12T11:37:51;3.20;;;1.90;;
9986;SDS011;5033;46.310;11.214;2022-07-12T11:40:23;1.88;;;1.77;;
9986;SDS011;5033;46.310;11.214;2022-07-12T11:42:51;1.90;;;1.67;;
9986;SDS011;5033;46.310;11.214;2022-07-12T11:45:21;2.15;;;1.42;;
9986;SDS011;5033;46.310;11.214;2022-07-12T11:47:48;2.05;;;1.90;;
9986;SDS011;5033;46.310;11.214;2022-07-12T11:50:16;6.15;;;2.20;;
9986;SDS011;5033;46.310;11.214;2022-07-12T11:52:44;2.25;;;1.88;;
9986;SDS011;5033;46.310;11.214;2022-07-12T11:55:12;2.20;;;2.00;;
9986;SDS011;5033;46.310;11.214;2022-07-12T11:57:39;2.42;;;1.95;;
9986;SDS011;5033;46.310;11.214;2022-07-12T12:00:13;3.10;;;2.25;;
9986;SDS011;5033;46.310;11.214;2022-07-12T12:02:46;2.35;;;2.00;;
9986;SDS011;5033;46.310;11.214;2022-07-12T12:05:18;3.78;;;1.80;;
9986;SDS011;5033;46.310;11.214;2022-07-12T12:07:45;1.98;;;1.77;;
9986;SDS011;5033;46.310;11.214;2022-07-12T12:10:13;2.33;;;1.80;;
9986;SDS011;5033;46.310;11.214;2022-07-12T12:12:42;2.22;;;1.90;;
9986;SDS011;5033;46.310;11.214;2022-07-12T12:15:10;1.77;;;1.52;;
9986;SDS011;5033;46.310;11.214;2022-07-12T12:17:43;2.92;;;1.83;;
9986;SDS011;5033;46.310;11.214;2022-07-12T12:20:13;2.53;;;2.13;;
9986;SDS011;5033;46.310;11.214;2022-07-12T12:22:43;2.90;;;2.10;;
9986;SDS011;5033;46.310;11.214;2022-07-12T12:25:11;5.82;;;2.13;;
9986;SDS011;5033;46.310;11.214;2022-07-12T12:27:40;3.40;;;2.15;;
9986;SDS011;5033;46.310;11.214;2022-07-12T12:30:08;2.30;;;1.90;;
9986;SDS011;5033;46.310;11.214;2022-07-12T12:35:17;1.80;;;1.70;;
9986;SDS011;5033;46.310;11.214;2022-07-12T12:37:50;3.08;;;1.88;;
9986;SDS011;5033;46.310;11.214;2022-07-12T12:40:19;2.17;;;1.90;;
9986;SDS011;5033;46.310;11.214;2022-07-12T12:42:47;1.70;;;1.60;;
9986;SDS011;5033;46.310;11.214;2022-07-12T12:45:18;2.58;;;1.85;;
9986;SDS011;5033;46.310;11.214;2022-07-12T12:47:53;1.70;;;1.60;;
9986;SDS011;5033;46.310;11.214;2022-07-12T12:50:40;2.42;;;1.77;;
9986;SDS011;5033;46.310;11.214;2022-07-12T12:53:13;2.20;;;1.70;;
9986;SDS011;5033;46.310;11.214;2022-07-12T12:55:42;2.58;;;1.80;;
9986;SDS011;5033;46.310;11.214;2022-07-12T12:58:10;2.47;;;1.88;;
9986;SDS011;5033;46.310;11.214;2022-07-12T13:00:38;2.05;;;1.65;;
9986;SDS011;5033;46.310;11.214;2022-07-12T13:03:08;1.90;;;1.80;;
9986;SDS011;5033;46.310;11.214;2022-07-12T13:05:37;1.90;;;1.70;;
9986;SDS011;5033;46.310;11.214;2022-07-12T13:08:05;1.70;;;1.60;;
9986;SDS011;5033;46.310;11.214;2022-07-12T13:10:34;2.25;;;1.40;;
9986;SDS011;5033;46.310;11.214;2022-07-12T13:13:02;2.00;;;1.83;;
9986;SDS011;5033;46.310;11.214;2022-07-12T13:15:30;1.90;;;1.70;;
9986;SDS011;5033;46.310;11.214;2022-07-12T13:17:58;2.40;;;1.67;;
9986;SDS011;5033;46.310;11.214;2022-07-12T13:20:27;2.83;;;2.33;;
9986;SDS011;5033;46.310;11.214;2022-07-12T13:22:55;3.30;;;2.22;;
9986;SDS011;5033;46.310;11.214;2022-07-12T13:25:22;2.40;;;2.20;;
9986;SDS011;5033;46.310;11.214;2022-07-12T13:27:50;2.40;;;1.85;;
9986;SDS011;5033;46.310;11.214;2022-07-12T13:30:18;3.15;;;2.00;;
9986;SDS011;5033;46.310;11.214;2022-07-12T13:32:46;2.22;;;1.88;;
9986;SDS011;5033;46.310;11.214;2022-07-12T13:35:13;4.00;;;2.13;;
9986;SDS011;5033;46.310;11.214;2022-07-12T13:37:42;2.67;;;1.77;;
9986;SDS011;5033;46.310;11.214;2022-07-12T13:40:09;2.08;;;1.88;;
9986;SDS011;5033;46.310;11.214;2022-07-12T13:42:36;2.10;;;1.80;;
9986;SDS011;5033;46.310;11.214;2022-07-12T13:45:03;1.70;;;1.58;;
9986;SDS011;5033;46.310;11.214;2022-07-12T13:47:31;1.70;;;1.60;;
9986;SDS011;5033;46.310;11.214;2022-07-12T13:49:59;1.73;;;1.60;;
9986;SDS011;5033;46.310;11.214;2022-07-12T13:52:26;2.72;;;1.60;;
9986;SDS011;5033;46.310;11.214;2022-07-12T13:54:54;3.75;;;1.73;;
9986;SDS011;5033;46.310;11.214;2022-07-12T13:57:22;3.05;;;1.80;;
9986;SDS011;5033;46.310;11.214;2022-07-12T13:59:49;3.97;;;2.28;;
9986;SDS011;5033;46.310;11.214;2022-07-12T14:02:16;2.83;;;1.95;;
9986;SDS011;5033;46.310;11.214;2022-07-12T14:04:43;2.00;;;1.80;;
9986;SDS011;5033;46.310;11.214;2022-07-12T14:07:11;2.80;;;1.80;;
9986;SDS011;5033;46.310;11.214;2022-07-12T14:09:38;1.73;;;1.63;;
9986;SDS011;5033;46.310;11.214;2022-07-12T14:12:07;2.58;;;1.30;;
9986;SDS011;5033;46.310;11.214;2022-07-12T14:14:35;1.52;;;1.38;;
9986;SDS011;5033;46.310;11.214;2022-07-12T14:17:19;2.47;;;1.80;;
9986;SDS011;5033;46.310;11.214;2022-07-12T14:19:46;1.60;;;1.50;;
9986;SDS011;5033;46.310;11.214;2022-07-12T14:22:14;1.75;;;1.63;;
9986;SDS011;5033;46.310;11.214;2022-07-12T14:24:41;3.35;;;1.60;;
9986;SDS011;5033;46.310;11.214;2022-07-12T14:27:09;3.72;;;1.70;;
9986;SDS011;5033;46.310;11.214;2022-07-12T14:29:37;1.50;;;1.38;;
9986;SDS011;5033;46.310;11.214;2022-07-12T14:32:04;4.07;;;1.90;;
9986;SDS011;5033;46.310;11.214;2022-07-12T14:34:31;3.15;;;1.80;;
9986;SDS011;5033;46.310;11.214;2022-07-12T14:36:58;2.45;;;1.52;;
9986;SDS011;5033;46.310;11.214;2022-07-12T14:39:26;1.77;;;1.50;;
9986;SDS011;5033;46.310;11.214;2022-07-12T14:41:53;2.20;;;1.50;;
9986;SDS011;5033;46.310;11.214;2022-07-12T14:44:22;4.05;;;1.60;;
9986;SDS011;5033;46.310;11.214;2022-07-12T14:46:50;2.83;;;1.67;;
9986;SDS011;5033;46.310;11.214;2022-07-12T14:49:18;1.75;;;1.55;;
9986;SDS011;5033;46.310;11.214;2022-07-12T14:51:45;3.72;;;1.63;;
9986;SDS011;5033;46.310;11.214;2022-07-12T14:54:12;1.85;;;1.35;;
9986;SDS011;5033;46.310;11.214;2022-07-12T14:56:40;3.15;;;1.75;;
9986;SDS011;5033;46.310;11.214;2022-07-12T14:59:07;2.15;;;1.45;;
9986;SDS011;5033;46.310;11.214;2022-07-12T15:01:35;2.17;;;1.45;;
9986;SDS011;5033;46.310;11.214;2022-07-12T15:04:02;1.98;;;1.65;;
9986;SDS011;5033;46.310;11.214;2022-07-12T15:06:30;1.73;;;1.63;;
9986;SDS011;5033;46.310;11.214;2022-07-12T15:08:57;2.88;;;1.63;;
9986;SDS011;5033;46.310;11.214;2022-07-12T15:11:24;1.85;;;1.67;;
9986;SDS011;5033;46.310;11.214;2022-07-12T15:13:52;2.03;;;1.48;;
9986;SDS011;5033;46.310;11.214;2022-07-12T15:16:19;2.15;;;1.58;;